Nearby METAR Reports

 

EGQS - Lossiemouth Raf, United Kingdom
Distance from station: NW 60mi, 97km
Updated: 19/08/2019 21:50
Mostly cloudy
Mostly cloudy
 Wind from W
Wind: W 15 mph , 24 km/h
Temperature: 13°C
Dew Point: 10°C
Humidity: 82%
Barometer: 1008 hPa
Clouds: Mostly cloudy
Visibility: 6 miles , 10 km
Cloud details: Few Clouds 549 m
Partly cloudy 762 m
Mostly cloudy 1219 m
2019/08/19 20:50 EGQS 192050Z 28013KT 9999 FEW018 SCT025 BKN040 13/10 Q1008 BLU RMK BLU